Time,TemperatureF,DewpointF,PressureIn,WindDirection,WindDirectionDegrees,WindSpeedMPH,WindSpeedGustMPH,Humidity,HourlyPrecipIn,Conditions,Clouds,dailyrainin,SoftwareType,DateUTC
2013-06-10 00:12:00,56.1,54.7,30.11,WNW,292,2.2,-999.0,95,-99.99,,,0.00,Acu-Link.com,2013-06-10 04:12:00,
2013-06-10 00:29:00,57.7,55.4,30.10,ESE,112,0.0,-999.0,92,-99.99,,,0.00,Acu-Link.com,2013-06-10 04:29:00,
2013-06-10 00:44:00,56.8,54.2,30.10,East,90,1.7,-999.0,91,-99.99,,,0.00,Acu-Link.com,2013-06-10 04:44:00,
2013-06-10 01:00:00,55.9,53.6,30.11,West,270,1.1,-999.0,92,-99.99,,,0.00,Acu-Link.com,2013-06-10 05:00:00,
2013-06-10 01:15:00,55.4,53.1,30.10,SE,135,0.0,-999.0,92,-99.99,,,0.00,Acu-Link.com,2013-06-10 05:15:00,
2013-06-10 01:31:00,54.9,53.2,30.11,East,90,0.0,-999.0,94,-99.99,,,0.00,Acu-Link.com,2013-06-10 05:31:00,
2013-06-10 01:47:00,54.1,52.7,30.12,WNW,292,0.0,-999.0,95,-99.99,,,0.00,Acu-Link.com,2013-06-10 05:47:00,
2013-06-10 02:02:00,53.6,52.5,30.12,NNE,22,0.0,-999.0,96,-99.99,,,0.00,Acu-Link.com,2013-06-10 06:02:00,
2013-06-10 02:18:00,52.9,52.1,30.12,NNE,22,0.0,-999.0,97,-99.99,,,0.00,Acu-Link.com,2013-06-10 06:18:00,
2013-06-10 02:34:00,52.5,51.7,30.12,ENE,67,0.0,-999.0,97,-99.99,,,0.00,Acu-Link.com,2013-06-10 06:34:00,
2013-06-10 02:49:00,52.0,51.5,30.12,NW,315,0.0,-999.0,98,-99.99,,,0.00,Acu-Link.com,2013-06-10 06:49:00,
2013-06-10 03:04:00,51.6,51.1,30.11,NNW,337,0.0,-999.0,98,-99.99,,,0.00,Acu-Link.com,2013-06-10 07:04:00,
2013-06-10 03:19:00,51.3,50.8,30.11,NW,315,0.0,-999.0,98,-99.99,,,0.00,Acu-Link.com,2013-06-10 07:19:00,
2013-06-10 03:35:00,51.1,50.6,30.12,WNW,292,0.0,-999.0,98,-99.99,,,0.00,Acu-Link.com,2013-06-10 07:35:00,
2013-06-10 03:50:00,50.9,50.4,30.11,ENE,67,0.0,-999.0,98,-99.99,,,0.00,Acu-Link.com,2013-06-10 07:50:00,
2013-06-10 04:06:00,50.5,50.0,30.12,NW,315,0.0,-999.0,98,-99.99,,,0.00,Acu-Link.com,2013-06-10 08:06:00,
2013-06-10 04:36:00,50.2,49.7,30.14,WNW,292,0.0,-999.0,98,-99.99,,,0.00,Acu-Link.com,2013-06-10 08:36:00,
2013-06-10 04:52:00,50.2,49.7,30.14,WNW,292,0.0,-999.0,98,-99.99,,,0.00,Acu-Link.com,2013-06-10 08:52:00,
2013-06-10 05:07:00,50.0,49.5,30.14,WNW,292,0.0,-999.0,98,-99.99,,,0.00,Acu-Link.com,2013-06-10 09:07:00,
2013-06-10 05:22:00,50.0,49.5,30.14,WNW,292,0.0,-999.0,98,-99.99,,,0.00,Acu-Link.com,2013-06-10 09:22:00,
2013-06-10 05:38:00,50.0,49.5,30.15,NNE,22,0.0,-999.0,98,-99.99,,,0.00,Acu-Link.com,2013-06-10 09:38:00,
2013-06-10 05:54:00,49.8,49.3,30.15,NW,315,0.0,-999.0,98,-99.99,,,0.00,Acu-Link.com,2013-06-10 09:54:00,
2013-06-10 06:09:00,50.0,49.5,30.16,NW,315,0.0,-999.0,98,-99.99,,,0.00,Acu-Link.com,2013-06-10 10:09:00,
2013-06-10 06:24:00,50.5,49.7,30.16,NNE,22,0.0,-999.0,97,-99.99,,,0.00,Acu-Link.com,2013-06-10 10:24:00,
2013-06-10 06:40:00,50.9,50.1,30.16,ENE,67,0.0,-999.0,97,-99.99,,,0.00,Acu-Link.com,2013-06-10 10:40:00,
2013-06-10 06:56:00,51.6,50.8,30.16,ENE,67,0.0,-999.0,97,-99.99,,,0.00,Acu-Link.com,2013-06-10 10:56:00,
2013-06-10 07:11:00,52.5,52.0,30.16,ENE,67,0.0,-999.0,98,-99.99,,,0.00,Acu-Link.com,2013-06-10 11:11:00,
2013-06-10 07:26:00,53.8,52.1,30.17,ESE,112,0.0,-999.0,94,-99.99,,,0.00,Acu-Link.com,2013-06-10 11:26:00,
2013-06-10 07:42:00,54.7,52.4,30.17,East,90,0.0,-999.0,92,-99.99,,,0.00,Acu-Link.com,2013-06-10 11:42:00,
2013-06-10 07:58:00,55.9,53.3,30.17,ESE,112,0.0,-999.0,91,-99.99,,,0.00,Acu-Link.com,2013-06-10 11:58:00,
2013-06-10 08:14:00,57.7,54.8,30.16,ESE,112,0.0,-999.0,90,-99.99,,,0.00,Acu-Link.com,2013-06-10 12:14:00,
2013-06-10 08:30:00,59.2,55.3,30.16,ENE,67,0.0,-999.0,87,-99.99,,,0.00,Acu-Link.com,2013-06-10 12:30:00,
2013-06-10 08:45:00,60.6,56.1,30.16,WNW,292,0.0,-999.0,85,-99.99,,,0.00,Acu-Link.com,2013-06-10 12:45:00,
2013-06-10 09:01:00,62.2,56.0,30.16,SSW,202,0.0,-999.0,80,-99.99,,,0.00,Acu-Link.com,2013-06-10 13:01:00,
2013-06-10 09:16:00,64.4,56.7,30.16,SSE,157,0.0,-999.0,76,-99.99,,,0.00,Acu-Link.com,2013-06-10 13:16:00,
2013-06-10 09:31:00,66.7,56.2,30.14,NNW,337,0.0,-999.0,69,-99.99,,,0.00,Acu-Link.com,2013-06-10 13:31:00,
2013-06-10 09:46:00,69.4,58.4,30.14,SSE,157,0.0,-999.0,68,-99.99,,,0.00,Acu-Link.com,2013-06-10 13:46:00,
2013-06-10 10:02:00,68.0,56.6,30.14,SSW,202,0.0,-999.0,67,-99.99,,,0.00,Acu-Link.com,2013-06-10 14:02:00,
2013-06-10 10:17:00,68.7,56.0,30.14,East,90,0.0,-999.0,64,-99.99,,,0.00,Acu-Link.com,2013-06-10 14:17:00,
2013-06-10 10:32:00,68.9,57.5,30.15,SW,225,0.0,-999.0,67,-99.99,,,0.00,Acu-Link.com,2013-06-10 14:32:00,
2013-06-10 10:48:00,67.8,58.8,30.14,WNW,292,0.0,-999.0,73,-99.99,,,0.00,Acu-Link.com,2013-06-10 14:48:00,
2013-06-10 11:03:00,68.5,60.3,30.14,East,90,0.0,-999.0,75,-99.99,,,0.00,Acu-Link.com,2013-06-10 15:03:00,
2013-06-10 11:18:00,68.4,61.3,30.15,NW,315,0.0,-999.0,78,-99.99,,,0.00,Acu-Link.com,2013-06-10 15:18:00,
2013-06-10 11:33:00,69.8,60.4,30.14,NE,45,0.0,-999.0,72,-99.99,,,0.00,Acu-Link.com,2013-06-10 15:33:00,
2013-06-10 11:48:00,69.1,59.3,30.14,NNE,22,0.0,-999.0,71,-99.99,,,0.00,Acu-Link.com,2013-06-10 15:48:00,
2013-06-10 12:04:00,69.4,58.0,30.13,NNE,22,0.0,-999.0,67,-99.99,,,0.00,Acu-Link.com,2013-06-10 16:04:00,
2013-06-10 12:19:00,70.0,60.5,30.13,North,0,0.0,-999.0,72,-99.99,,,0.00,Acu-Link.com,2013-06-10 16:19:00,
2013-06-10 12:34:00,70.2,59.9,30.12,SW,225,0.0,-999.0,70,-99.99,,,0.00,Acu-Link.com,2013-06-10 16:34:00,
2013-06-10 12:49:00,70.7,60.0,30.12,SW,225,0.0,-999.0,69,-99.99,,,0.00,Acu-Link.com,2013-06-10 16:49:00,
2013-06-10 13:05:00,72.5,62.1,30.12,NNE,22,0.0,-999.0,70,-99.99,,,0.00,Acu-Link.com,2013-06-10 17:05:00,
2013-06-10 13:20:00,72.1,60.5,30.12,NNE,22,0.0,-999.0,67,-99.99,,,0.00,Acu-Link.com,2013-06-10 17:20:00,
2013-06-10 13:35:00,72.0,62.9,30.12,NNE,22,0.0,-999.0,73,-99.99,,,0.00,Acu-Link.com,2013-06-10 17:35:00,
2013-06-10 13:50:00,72.0,63.2,30.11,NNE,22,0.0,-999.0,74,-99.99,,,0.00,Acu-Link.com,2013-06-10 17:50:00,
2013-06-10 14:06:00,72.3,63.5,30.11,WNW,292,0.0,-999.0,74,-99.99,,,0.00,Acu-Link.com,2013-06-10 18:06:00,
2013-06-10 14:21:00,72.1,63.7,30.11,NNW,337,1.1,-999.0,75,-99.99,,,0.00,Acu-Link.com,2013-06-10 18:21:00,
2013-06-10 14:51:00,71.2,61.7,30.10,North,0,1.7,-999.0,72,-99.99,,,0.00,Acu-Link.com,2013-06-10 18:51:00,
2013-06-10 15:22:00,70.5,61.8,30.10,WNW,292,0.0,-999.0,74,-99.99,,,0.00,Acu-Link.com,2013-06-10 19:22:00,
2013-06-10 15:37:00,70.0,61.3,30.08,NW,315,0.0,-999.0,74,-99.99,,,0.00,Acu-Link.com,2013-06-10 19:37:00,
2013-06-10 15:52:00,69.4,61.9,30.08,NE,45,0.0,-999.0,77,-99.99,,,0.00,Acu-Link.com,2013-06-10 19:52:00,
2013-06-10 16:07:00,68.9,62.1,30.08,NW,315,0.0,-999.0,79,-99.99,,,0.00,Acu-Link.com,2013-06-10 20:07:00,
2013-06-10 16:23:00,68.4,62.7,30.08,East,90,0.0,-999.0,82,-99.99,,,0.00,Acu-Link.com,2013-06-10 20:23:00,
2013-06-10 16:38:00,67.8,62.8,30.07,North,0,0.0,-999.0,84,-99.99,,,0.00,Acu-Link.com,2013-06-10 20:38:00,
2013-06-10 16:53:00,67.3,62.3,30.07,NW,315,0.0,-999.0,84,-99.99,,,0.00,Acu-Link.com,2013-06-10 20:53:00,
2013-06-10 17:08:00,67.1,62.8,30.07,NW,315,0.0,-999.0,86,-99.99,,,0.00,Acu-Link.com,2013-06-10 21:08:00,
2013-06-10 17:24:00,66.9,61.9,30.06,NNW,337,0.0,-999.0,84,-99.99,,,0.00,Acu-Link.com,2013-06-10 21:24:00,
2013-06-10 17:39:00,66.6,62.6,30.06,NNW,337,0.0,-999.0,87,-99.99,,,0.00,Acu-Link.com,2013-06-10 21:39:00,
2013-06-10 17:54:00,66.4,62.7,30.06,NW,315,0.0,-999.0,88,-99.99,,,0.00,Acu-Link.com,2013-06-10 21:54:00,
2013-06-10 18:09:00,66.2,62.2,30.05,NW,315,1.1,-999.0,87,-99.99,,,0.00,Acu-Link.com,2013-06-10 22:09:00,
2013-06-10 18:24:00,65.7,62.4,30.04,NE,45,0.0,-999.0,89,-99.99,,,0.00,Acu-Link.com,2013-06-10 22:24:00,
2013-06-10 18:40:00,65.3,62.0,30.04,West,270,0.0,-999.0,89,-99.99,,,0.00,Acu-Link.com,2013-06-10 22:40:00,
2013-06-10 18:55:00,64.9,61.6,30.04,NW,315,0.0,-999.0,89,-99.99,,,0.00,Acu-Link.com,2013-06-10 22:55:00,
2013-06-10 19:10:00,64.4,61.7,30.04,WNW,292,0.0,-999.0,91,-99.99,,,0.00,Acu-Link.com,2013-06-10 23:10:00,
2013-06-10 19:25:00,64.0,61.6,30.03,NW,315,0.0,-999.0,92,-99.99,,,0.00,Acu-Link.com,2013-06-10 23:25:00,
2013-06-10 19:40:00,63.7,61.3,30.03,ESE,112,0.0,-999.0,92,-99.99,,,0.00,Acu-Link.com,2013-06-10 23:40:00,
2013-06-10 19:56:00,63.1,61.0,30.03,WNW,292,0.0,-999.0,93,-99.99,,,0.00,Acu-Link.com,2013-06-10 23:56:00,
2013-06-10 20:41:00,61.9,60.2,30.02,WNW,292,0.0,-999.0,94,-99.99,,,0.00,Acu-Link.com,2013-06-11 00:41:00,
2013-06-10 20:56:00,61.7,60.3,30.02,West,270,0.0,-999.0,95,-99.99,,,0.00,Acu-Link.com,2013-06-11 00:56:00,
2013-06-10 21:12:00,61.5,59.8,30.02,WNW,292,0.0,-999.0,94,-99.99,,,0.00,Acu-Link.com,2013-06-11 01:12:00,
2013-06-10 21:27:00,61.2,60.0,30.02,NW,315,0.0,-999.0,96,-99.99,,,0.00,Acu-Link.com,2013-06-11 01:27:00,
2013-06-10 21:42:00,60.8,59.9,30.02,WNW,292,0.0,-999.0,97,-99.99,,,0.00,Acu-Link.com,2013-06-11 01:42:00,
2013-06-10 21:57:00,60.6,60.0,30.02,NW,315,0.0,-999.0,98,-99.99,,,0.00,Acu-Link.com,2013-06-11 01:57:00,
2013-06-10 22:12:00,60.1,59.5,30.02,NW,315,0.0,-999.0,98,-99.99,,,0.00,Acu-Link.com,2013-06-11 02:12:00,
2013-06-10 22:28:00,59.9,59.3,30.01,NW,315,0.0,-999.0,98,-99.99,,,0.00,Acu-Link.com,2013-06-11 02:28:00,
2013-06-10 22:43:00,59.5,58.6,30.01,NW,315,0.0,-999.0,97,-99.99,,,0.00,Acu-Link.com,2013-06-11 02:43:00,
2013-06-10 22:58:00,59.2,57.5,30.01,NE,45,0.0,-999.0,94,-99.99,,,0.00,Acu-Link.com,2013-06-11 02:58:00,
2013-06-10 23:13:00,58.6,57.5,30.00,NNW,337,0.0,-999.0,96,-99.99,,,0.00,Acu-Link.com,2013-06-11 03:13:00,
2013-06-10 23:29:00,58.3,57.2,30.00,NNW,337,0.0,-999.0,96,-99.99,,,0.00,Acu-Link.com,2013-06-11 03:29:00,
2013-06-10 23:44:00,58.1,57.3,29.99,ESE,112,0.0,-999.0,97,-99.99,,,0.00,Acu-Link.com,2013-06-11 03:44:00,
2013-06-10 23:59:00,57.9,56.8,29.98,ENE,67,0.0,-999.0,96,-99.99,,,0.00,Acu-Link.com,2013-06-11 03:59:00,